sensor_id;sensor_type;location;lat;lon;timestamp;temperature;humidity
19928;DHT22;10126;50.876;4.470;2022-10-16T00:01:19;14.10;99.90
19928;DHT22;10126;50.876;4.470;2022-10-16T00:03:20;14.10;99.90
19928;DHT22;10126;50.876;4.470;2022-10-16T00:05:21;14.10;99.90
19928;DHT22;10126;50.876;4.470;2022-10-16T00:07:21;14.20;99.90
19928;DHT22;10126;50.876;4.470;2022-10-16T00:09:22;14.10;99.90
19928;DHT22;10126;50.876;4.470;2022-10-16T00:11:26;14.20;99.90
19928;DHT22;10126;50.876;4.470;2022-10-16T00:13:27;14.20;99.90
19928;DHT22;10126;50.876;4.470;2022-10-16T00:15:27;14.10;99.90
19928;DHT22;10126;50.876;4.470;2022-10-16T00:17:29;14.10;99.90
19928;DHT22;10126;50.876;4.470;2022-10-16T00:19:30;14.10;99.90
19928;DHT22;10126;50.876;4.470;2022-10-16T00:21:31;14.20;99.90
19928;DHT22;10126;50.876;4.470;2022-10-16T00:23:32;14.20;99.90
19928;DHT22;10126;50.876;4.470;2022-10-16T00:25:33;14.10;99.90
19928;DHT22;10126;50.876;4.470;2022-10-16T00:27:34;14.10;99.90
19928;DHT22;10126;50.876;4.470;2022-10-16T00:29:35;14.10;99.90
19928;DHT22;10126;50.876;4.470;2022-10-16T00:31:35;14.10;99.90
19928;DHT22;10126;50.876;4.470;2022-10-16T00:33:38;14.10;99.90
19928;DHT22;10126;50.876;4.470;2022-10-16T00:35:39;14.10;99.90
19928;DHT22;10126;50.876;4.470;2022-10-16T00:37:39;14.20;99.90
19928;DHT22;10126;50.876;4.470;2022-10-16T00:39:40;14.10;99.90
19928;DHT22;10126;50.876;4.470;2022-10-16T00:41:41;14.10;99.90
19928;DHT22;10126;50.876;4.470;2022-10-16T00:43:52;14.00;99.90
19928;DHT22;10126;50.876;4.470;2022-10-16T00:45:53;14.00;99.90
19928;DHT22;10126;50.876;4.470;2022-10-16T00:47:55;14.10;99.90
19928;DHT22;10126;50.876;4.470;2022-10-16T00:52:16;14.00;99.90
19928;DHT22;10126;50.876;4.470;2022-10-16T00:54:18;14.00;99.90
19928;DHT22;10126;50.876;4.470;2022-10-16T00:56:20;14.00;99.90
19928;DHT22;10126;50.876;4.470;2022-10-16T00:58:21;13.90;99.90
19928;DHT22;10126;50.876;4.470;2022-10-16T01:00:25;13.90;99.90
19928;DHT22;10126;50.876;4.470;2022-10-16T01:02:25;13.90;99.90
19928;DHT22;10126;50.876;4.470;2022-10-16T01:04:36;13.90;99.90
19928;DHT22;10126;50.876;4.470;2022-10-16T01:09:17;13.80;99.90
19928;DHT22;10126;50.876;4.470;2022-10-16T01:11:50;13.90;99.90
19928;DHT22;10126;50.876;4.470;2022-10-16T01:13:57;13.90;99.90
19928;DHT22;10126;50.876;4.470;2022-10-16T01:16:05;13.90;99.90
19928;DHT22;10126;50.876;4.470;2022-10-16T01:18:09;13.90;99.90
19928;DHT22;10126;50.876;4.470;2022-10-16T01:20:26;13.90;99.90
19928;DHT22;10126;50.876;4.470;2022-10-16T01:23:19;13.90;99.90
19928;DHT22;10126;50.876;4.470;2022-10-16T01:24:54;13.90;99.90
19928;DHT22;10126;50.876;4.470;2022-10-16T01:29:27;14.00;99.90
19928;DHT22;10126;50.876;4.470;2022-10-16T01:31:32;14.00;99.90
19928;DHT22;10126;50.876;4.470;2022-10-16T01:33:46;13.90;99.90
19928;DHT22;10126;50.876;4.470;2022-10-16T01:36:02;13.90;99.90
19928;DHT22;10126;50.876;4.470;2022-10-16T01:38:21;13.90;99.90
19928;DHT22;10126;50.876;4.470;2022-10-16T01:40:26;13.90;99.90
19928;DHT22;10126;50.876;4.470;2022-10-16T01:42:34;13.90;99.90
19928;DHT22;10126;50.876;4.470;2022-10-16T01:44:36;13.90;99.90
19928;DHT22;10126;50.876;4.470;2022-10-16T01:46:42;13.80;99.90
19928;DHT22;10126;50.876;4.470;2022-10-16T01:48:43;13.80;99.90
19928;DHT22;10126;50.876;4.470;2022-10-16T01:50:54;13.80;99.90
19928;DHT22;10126;50.876;4.470;2022-10-16T01:52:57;13.80;99.90
19928;DHT22;10126;50.876;4.470;2022-10-16T01:54:59;13.90;99.90
19928;DHT22;10126;50.876;4.470;2022-10-16T01:57:01;13.90;99.90
19928;DHT22;10126;50.876;4.470;2022-10-16T01:59:10;13.90;99.90
19928;DHT22;10126;50.876;4.470;2022-10-16T02:01:13;13.90;99.90
19928;DHT22;10126;50.876;4.470;2022-10-16T02:03:18;13.90;99.90
19928;DHT22;10126;50.876;4.470;2022-10-16T02:05:34;13.90;99.90
19928;DHT22;10126;50.876;4.470;2022-10-16T02:07:38;13.90;99.90
19928;DHT22;10126;50.876;4.470;2022-10-16T02:09:39;13.80;99.90
19928;DHT22;10126;50.876;4.470;2022-10-16T02:11:39;13.80;99.90
19928;DHT22;10126;50.876;4.470;2022-10-16T02:14:00;13.80;99.90
19928;DHT22;10126;50.876;4.470;2022-10-16T02:16:02;13.70;99.90
19928;DHT22;10126;50.876;4.470;2022-10-16T02:18:04;13.70;99.90
19928;DHT22;10126;50.876;4.470;2022-10-16T02:20:05;13.60;99.90
19928;DHT22;10126;50.876;4.470;2022-10-16T02:22:10;13.60;99.90
19928;DHT22;10126;50.876;4.470;2022-10-16T02:27:26;13.80;99.90
19928;DHT22;10126;50.876;4.470;2022-10-16T02:28:59;13.90;99.90
19928;DHT22;10126;50.876;4.470;2022-10-16T02:31:04;14.00;99.90
19928;DHT22;10126;50.876;4.470;2022-10-16T02:33:08;14.00;99.90
19928;DHT22;10126;50.876;4.470;2022-10-16T02:35:10;13.90;99.90
19928;DHT22;10126;50.876;4.470;2022-10-16T02:37:11;13.90;99.90
19928;DHT22;10126;50.876;4.470;2022-10-16T02:39:13;13.80;99.90
19928;DHT22;10126;50.876;4.470;2022-10-16T02:41:14;13.80;99.90
19928;DHT22;10126;50.876;4.470;2022-10-16T02:43:16;13.80;99.90
19928;DHT22;10126;50.876;4.470;2022-10-16T02:45:17;13.70;99.90
19928;DHT22;10126;50.876;4.470;2022-10-16T02:47:18;13.70;99.90
19928;DHT22;10126;50.876;4.470;2022-10-16T02:49:19;13.70;99.90
19928;DHT22;10126;50.876;4.470;2022-10-16T02:51:19;13.80;99.90
19928;DHT22;10126;50.876;4.470;2022-10-16T02:53:20;13.70;99.90
19928;DHT22;10126;50.876;4.470;2022-10-16T02:55:20;13.70;99.90
19928;DHT22;10126;50.876;4.470;2022-10-16T02:57:21;13.70;99.90
19928;DHT22;10126;50.876;4.470;2022-10-16T02:59:22;13.70;99.90
19928;DHT22;10126;50.876;4.470;2022-10-16T03:01:23;13.70;99.90
19928;DHT22;10126;50.876;4.470;2022-10-16T03:03:24;13.70;99.90
19928;DHT22;10126;50.876;4.470;2022-10-16T03:05:24;13.70;99.90
19928;DHT22;10126;50.876;4.470;2022-10-16T03:07:25;13.80;99.90
19928;DHT22;10126;50.876;4.470;2022-10-16T03:09:26;13.70;99.90
19928;DHT22;10126;50.876;4.470;2022-10-16T03:11:26;13.70;99.90
19928;DHT22;10126;50.876;4.470;2022-10-16T03:13:28;13.80;99.90
19928;DHT22;10126;50.876;4.470;2022-10-16T03:15:29;13.80;99.90
19928;DHT22;10126;50.876;4.470;2022-10-16T03:17:29;13.70;99.90
19928;DHT22;10126;50.876;4.470;2022-10-16T03:19:30;13.70;99.90
19928;DHT22;10126;50.876;4.470;2022-10-16T03:21:31;13.80;99.90
19928;DHT22;10126;50.876;4.470;2022-10-16T03:23:31;13.80;99.90
19928;DHT22;10126;50.876;4.470;2022-10-16T03:25:32;13.80;99.90
19928;DHT22;10126;50.876;4.470;2022-10-16T03:27:33;13.80;99.90
19928;DHT22;10126;50.876;4.470;2022-10-16T03:29:33;13.70;99.90
19928;DHT22;10126;50.876;4.470;2022-10-16T03:31:34;13.90;99.90
19928;DHT22;10126;50.876;4.470;2022-10-16T03:33:34;13.90;99.90
19928;DHT22;10126;50.876;4.470;2022-10-16T03:35:35;13.80;99.90
19928;DHT22;10126;50.876;4.470;2022-10-16T03:37:36;13.80;99.90
19928;DHT22;10126;50.876;4.470;2022-10-16T03:39:36;13.70;99.90
19928;DHT22;10126;50.876;4.470;2022-10-16T03:41:37;13.70;99.90
19928;DHT22;10126;50.876;4.470;2022-10-16T03:43:38;13.80;99.90
19928;DHT22;10126;50.876;4.470;2022-10-16T03:45:38;13.90;99.90
19928;DHT22;10126;50.876;4.470;2022-10-16T03:47:40;13.70;99.90
19928;DHT22;10126;50.876;4.470;2022-10-16T03:49:41;13.80;99.90
19928;DHT22;10126;50.876;4.470;2022-10-16T03:51:42;13.70;99.90
19928;DHT22;10126;50.876;4.470;2022-10-16T03:53:42;13.70;99.90
19928;DHT22;10126;50.876;4.470;2022-10-16T03:55:43;13.80;99.90
19928;DHT22;10126;50.876;4.470;2022-10-16T03:57:44;13.80;99.90
19928;DHT22;10126;50.876;4.470;2022-10-16T03:59:45;13.80;99.90
19928;DHT22;10126;50.876;4.470;2022-10-16T04:01:46;13.80;99.90
19928;DHT22;10126;50.876;4.470;2022-10-16T04:03:46;13.80;99.90
19928;DHT22;10126;50.876;4.470;2022-10-16T04:05:47;13.80;99.90
19928;DHT22;10126;50.876;4.470;2022-10-16T04:07:48;13.90;99.90
19928;DHT22;10126;50.876;4.470;2022-10-16T04:09:48;13.90;99.90
19928;DHT22;10126;50.876;4.470;2022-10-16T04:11:49;13.90;99.90
19928;DHT22;10126;50.876;4.470;2022-10-16T04:13:49;13.90;99.90
19928;DHT22;10126;50.876;4.470;2022-10-16T04:15:50;13.80;99.90
19928;DHT22;10126;50.876;4.470;2022-10-16T04:17:51;13.90;99.90
19928;DHT22;10126;50.876;4.470;2022-10-16T04:19:52;13.90;99.90
19928;DHT22;10126;50.876;4.470;2022-10-16T04:21:53;13.90;99.90
19928;DHT22;10126;50.876;4.470;2022-10-16T04:23:53;13.90;99.90
19928;DHT22;10126;50.876;4.470;2022-10-16T04:25:54;13.90;99.90
19928;DHT22;10126;50.876;4.470;2022-10-16T04:27:55;13.80;99.90
19928;DHT22;10126;50.876;4.470;2022-10-16T04:29:56;13.80;99.90
19928;DHT22;10126;50.876;4.470;2022-10-16T04:31:56;13.80;99.90
19928;DHT22;10126;50.876;4.470;2022-10-16T04:33:57;13.80;99.90
19928;DHT22;10126;50.876;4.470;2022-10-16T04:35:59;13.80;99.90
19928;DHT22;10126;50.876;4.470;2022-10-16T04:38:00;13.90;99.90
19928;DHT22;10126;50.876;4.470;2022-10-16T04:40:01;13.90;99.90
19928;DHT22;10126;50.876;4.470;2022-10-16T04:42:01;13.90;99.90
19928;DHT22;10126;50.876;4.470;2022-10-16T04:44:02;14.00;99.90
19928;DHT22;10126;50.876;4.470;2022-10-16T04:46:03;13.90;99.90
19928;DHT22;10126;50.876;4.470;2022-10-16T04:48:05;13.90;99.90
19928;DHT22;10126;50.876;4.470;2022-10-16T04:50:05;13.90;99.90
19928;DHT22;10126;50.876;4.470;2022-10-16T04:52:06;13.80;99.90
19928;DHT22;10126;50.876;4.470;2022-10-16T04:54:08;13.70;99.90
19928;DHT22;10126;50.876;4.470;2022-10-16T04:56:08;13.70;99.90
19928;DHT22;10126;50.876;4.470;2022-10-16T04:58:09;13.80;99.90
19928;DHT22;10126;50.876;4.470;2022-10-16T05:00:10;13.70;99.90
19928;DHT22;10126;50.876;4.470;2022-10-16T05:02:11;13.60;99.90
19928;DHT22;10126;50.876;4.470;2022-10-16T05:04:12;13.50;99.90
19928;DHT22;10126;50.876;4.470;2022-10-16T05:06:13;13.70;99.90
19928;DHT22;10126;50.876;4.470;2022-10-16T05:08:14;13.70;99.90
19928;DHT22;10126;50.876;4.470;2022-10-16T05:10:16;13.70;99.90
19928;DHT22;10126;50.876;4.470;2022-10-16T05:12:16;13.60;99.90
19928;DHT22;10126;50.876;4.470;2022-10-16T05:14:17;13.60;99.90
19928;DHT22;10126;50.876;4.470;2022-10-16T05:16:18;13.50;99.90
19928;DHT22;10126;50.876;4.470;2022-10-16T05:18:19;13.50;99.90
19928;DHT22;10126;50.876;4.470;2022-10-16T05:20:19;13.70;99.90
19928;DHT22;10126;50.876;4.470;2022-10-16T05:22:20;13.70;99.90
19928;DHT22;10126;50.876;4.470;2022-10-16T05:24:21;13.70;99.90
19928;DHT22;10126;50.876;4.470;2022-10-16T05:26:22;13.50;99.90
19928;DHT22;10126;50.876;4.470;2022-10-16T05:28:23;13.40;99.90
19928;DHT22;10126;50.876;4.470;2022-10-16T05:30:24;13.40;99.90
19928;DHT22;10126;50.876;4.470;2022-10-16T05:32:24;13.40;99.90
19928;DHT22;10126;50.876;4.470;2022-10-16T05:34:25;13.30;99.90
19928;DHT22;10126;50.876;4.470;2022-10-16T05:36:26;13.30;99.90
19928;DHT22;10126;50.876;4.470;2022-10-16T05:38:26;13.50;99.90
19928;DHT22;10126;50.876;4.470;2022-10-16T05:40:27;13.50;99.90
19928;DHT22;10126;50.876;4.470;2022-10-16T05:42:28;13.40;99.90
19928;DHT22;10126;50.876;4.470;2022-10-16T05:44:28;13.40;99.90
19928;DHT22;10126;50.876;4.470;2022-10-16T05:46:29;13.30;99.90
19928;DHT22;10126;50.876;4.470;2022-10-16T05:48:31;13.20;99.90
19928;DHT22;10126;50.876;4.470;2022-10-16T05:50:31;13.20;99.90
19928;DHT22;10126;50.876;4.470;2022-10-16T05:52:32;13.20;99.90
19928;DHT22;10126;50.876;4.470;2022-10-16T05:54:33;13.20;99.90
19928;DHT22;10126;50.876;4.470;2022-10-16T05:56:33;13.30;99.90
19928;DHT22;10126;50.876;4.470;2022-10-16T05:58:36;13.30;99.90
19928;DHT22;10126;50.876;4.470;2022-10-16T06:00:37;13.40;99.90
19928;DHT22;10126;50.876;4.470;2022-10-16T06:02:38;13.20;99.90
19928;DHT22;10126;50.876;4.470;2022-10-16T06:04:39;13.20;99.90
19928;DHT22;10126;50.876;4.470;2022-10-16T06:06:39;13.10;99.90
19928;DHT22;10126;50.876;4.470;2022-10-16T06:08:41;13.20;99.90
19928;DHT22;10126;50.876;4.470;2022-10-16T06:10:42;13.10;99.90
19928;DHT22;10126;50.876;4.470;2022-10-16T06:12:44;13.10;99.90
19928;DHT22;10126;50.876;4.470;2022-10-16T06:14:45;13.00;99.90
19928;DHT22;10126;50.876;4.470;2022-10-16T06:16:47;13.10;99.90
19928;DHT22;10126;50.876;4.470;2022-10-16T06:18:47;13.20;99.90
19928;DHT22;10126;50.876;4.470;2022-10-16T06:20:48;13.20;99.90
19928;DHT22;10126;50.876;4.470;2022-10-16T06:22:49;13.20;99.90
19928;DHT22;10126;50.876;4.470;2022-10-16T06:24:49;13.20;99.90
19928;DHT22;10126;50.876;4.470;2022-10-16T06:26:50;13.30;99.90
19928;DHT22;10126;50.876;4.470;2022-10-16T06:28:51;13.30;99.90
19928;DHT22;10126;50.876;4.470;2022-10-16T06:30:59;13.30;99.90
19928;DHT22;10126;50.876;4.470;2022-10-16T06:33:00;13.50;99.90
19928;DHT22;10126;50.876;4.470;2022-10-16T06:35:00;13.50;99.90
19928;DHT22;10126;50.876;4.470;2022-10-16T06:37:01;13.40;99.90
19928;DHT22;10126;50.876;4.470;2022-10-16T06:39:02;13.30;99.90
19928;DHT22;10126;50.876;4.470;2022-10-16T06:41:04;13.30;99.90
19928;DHT22;10126;50.876;4.470;2022-10-16T06:43:05;13.50;99.90
19928;DHT22;10126;50.876;4.470;2022-10-16T06:45:06;13.60;99.90
19928;DHT22;10126;50.876;4.470;2022-10-16T06:47:07;13.80;99.90
19928;DHT22;10126;50.876;4.470;2022-10-16T06:49:07;14.00;99.90
19928;DHT22;10126;50.876;4.470;2022-10-16T06:51:10;14.30;99.90
19928;DHT22;10126;50.876;4.470;2022-10-16T06:53:11;14.70;99.90
19928;DHT22;10126;50.876;4.470;2022-10-16T06:55:12;15.30;99.90
19928;DHT22;10126;50.876;4.470;2022-10-16T06:57:12;16.20;99.90
19928;DHT22;10126;50.876;4.470;2022-10-16T06:59:13;17.30;99.90
19928;DHT22;10126;50.876;4.470;2022-10-16T07:01:15;18.10;99.90
19928;DHT22;10126;50.876;4.470;2022-10-16T07:03:16;18.70;99.90
19928;DHT22;10126;50.876;4.470;2022-10-16T07:05:17;19.40;99.90
19928;DHT22;10126;50.876;4.470;2022-10-16T07:07:18;19.90;99.90
19928;DHT22;10126;50.876;4.470;2022-10-16T07:09:19;20.00;99.90
19928;DHT22;10126;50.876;4.470;2022-10-16T07:11:21;19.80;99.90
19928;DHT22;10126;50.876;4.470;2022-10-16T07:13:22;20.20;99.90
19928;DHT22;10126;50.876;4.470;2022-10-16T07:15:24;19.90;99.90
19928;DHT22;10126;50.876;4.470;2022-10-16T07:17:25;20.00;99.90
19928;DHT22;10126;50.876;4.470;2022-10-16T07:19:25;20.70;99.90
19928;DHT22;10126;50.876;4.470;2022-10-16T07:21:28;21.50;99.90
19928;DHT22;10126;50.876;4.470;2022-10-16T07:23:29;22.30;99.90
19928;DHT22;10126;50.876;4.470;2022-10-16T07:25:29;23.00;99.90
19928;DHT22;10126;50.876;4.470;2022-10-16T07:27:30;22.70;99.90
19928;DHT22;10126;50.876;4.470;2022-10-16T07:29:31;23.10;99.90
19928;DHT22;10126;50.876;4.470;2022-10-16T07:31:32;22.20;99.90
19928;DHT22;10126;50.876;4.470;2022-10-16T07:33:34;22.10;99.90
19928;DHT22;10126;50.876;4.470;2022-10-16T07:35:35;22.50;99.90
19928;DHT22;10126;50.876;4.470;2022-10-16T07:37:36;23.30;99.90
19928;DHT22;10126;50.876;4.470;2022-10-16T07:39:36;23.10;99.90
19928;DHT22;10126;50.876;4.470;2022-10-16T07:41:37;23.50;99.90
19928;DHT22;10126;50.876;4.470;2022-10-16T07:43:38;23.50;99.90
19928;DHT22;10126;50.876;4.470;2022-10-16T07:45:49;23.00;99.90
19928;DHT22;10126;50.876;4.470;2022-10-16T07:47:50;22.20;99.90
19928;DHT22;10126;50.876;4.470;2022-10-16T07:49:50;21.80;99.90
19928;DHT22;10126;50.876;4.470;2022-10-16T07:51:51;21.70;99.90
19928;DHT22;10126;50.876;4.470;2022-10-16T07:53:52;21.10;99.90
19928;DHT22;10126;50.876;4.470;2022-10-16T07:55:57;20.70;99.90
19928;DHT22;10126;50.876;4.470;2022-10-16T07:57:58;20.30;99.90
19928;DHT22;10126;50.876;4.470;2022-10-16T07:59:59;20.20;99.90
19928;DHT22;10126;50.876;4.470;2022-10-16T08:02:00;19.30;99.90
19928;DHT22;10126;50.876;4.470;2022-10-16T08:04:00;18.80;99.90
19928;DHT22;10126;50.876;4.470;2022-10-16T08:06:02;18.20;99.90
19928;DHT22;10126;50.876;4.470;2022-10-16T08:08:03;17.70;99.90
19928;DHT22;10126;50.876;4.470;2022-10-16T08:10:03;17.50;99.90
19928;DHT22;10126;50.876;4.470;2022-10-16T08:12:04;17.50;99.90
19928;DHT22;10126;50.876;4.470;2022-10-16T08:14:05;17.40;99.90
19928;DHT22;10126;50.876;4.470;2022-10-16T08:16:06;17.20;99.90
19928;DHT22;10126;50.876;4.470;2022-10-16T08:18:09;17.00;99.90
19928;DHT22;10126;50.876;4.470;2022-10-16T08:20:10;16.90;99.90
19928;DHT22;10126;50.876;4.470;2022-10-16T08:22:11;17.10;99.90
19928;DHT22;10126;50.876;4.470;2022-10-16T08:24:12;17.00;99.90
19928;DHT22;10126;50.876;4.470;2022-10-16T08:26:13;17.00;99.90
19928;DHT22;10126;50.876;4.470;2022-10-16T08:28:13;17.00;99.90
19928;DHT22;10126;50.876;4.470;2022-10-16T08:30:15;17.10;99.90
19928;DHT22;10126;50.876;4.470;2022-10-16T08:32:16;17.10;99.90
19928;DHT22;10126;50.876;4.470;2022-10-16T08:34:17;17.20;99.90
19928;DHT22;10126;50.876;4.470;2022-10-16T08:36:17;17.30;99.90
19928;DHT22;10126;50.876;4.470;2022-10-16T08:38:18;17.30;99.90
19928;DHT22;10126;50.876;4.470;2022-10-16T08:40:27;17.30;99.90
19928;DHT22;10126;50.876;4.470;2022-10-16T08:49:57;17.10;99.90
19928;DHT22;10126;50.876;4.470;2022-10-16T08:51:59;17.20;99.90
19928;DHT22;10126;50.876;4.470;2022-10-16T08:54:06;17.20;99.90
19928;DHT22;10126;50.876;4.470;2022-10-16T08:56:10;17.30;99.90
19928;DHT22;10126;50.876;4.470;2022-10-16T08:58:16;17.30;99.90
19928;DHT22;10126;50.876;4.470;2022-10-16T09:00:17;17.40;99.90
19928;DHT22;10126;50.876;4.470;2022-10-16T09:04:58;17.50;99.90
19928;DHT22;10126;50.876;4.470;2022-10-16T09:09:54;17.50;99.90
19928;DHT22;10126;50.876;4.470;2022-10-16T09:21:04;18.00;99.90
19928;DHT22;10126;50.876;4.470;2022-10-16T09:23:27;18.10;99.90
19928;DHT22;10126;50.876;4.470;2022-10-16T09:25:28;18.10;99.90
19928;DHT22;10126;50.876;4.470;2022-10-16T09:27:29;18.10;99.90
19928;DHT22;10126;50.876;4.470;2022-10-16T09:29:30;18.10;99.90
19928;DHT22;10126;50.876;4.470;2022-10-16T09:31:31;18.10;99.90
19928;DHT22;10126;50.876;4.470;2022-10-16T09:33:36;18.20;99.90
19928;DHT22;10126;50.876;4.470;2022-10-16T09:35:46;18.40;99.90
19928;DHT22;10126;50.876;4.470;2022-10-16T09:37:50;18.50;99.90
19928;DHT22;10126;50.876;4.470;2022-10-16T09:39:54;18.50;99.90
19928;DHT22;10126;50.876;4.470;2022-10-16T09:41:56;18.70;99.90
19928;DHT22;10126;50.876;4.470;2022-10-16T09:43:59;18.80;99.90
19928;DHT22;10126;50.876;4.470;2022-10-16T09:46:06;18.80;99.90
19928;DHT22;10126;50.876;4.470;2022-10-16T09:48:12;19.00;99.90
19928;DHT22;10126;50.876;4.470;2022-10-16T09:50:24;19.00;99.90
19928;DHT22;10126;50.876;4.470;2022-10-16T09:52:27;19.00;99.90
19928;DHT22;10126;50.876;4.470;2022-10-16T09:54:27;18.70;99.90
19928;DHT22;10126;50.876;4.470;2022-10-16T09:56:29;18.80;99.90
19928;DHT22;10126;50.876;4.470;2022-10-16T09:58:31;18.80;99.90
19928;DHT22;10126;50.876;4.470;2022-10-16T10:00:33;18.80;99.90
19928;DHT22;10126;50.876;4.470;2022-10-16T10:02:35;18.80;99.90
19928;DHT22;10126;50.876;4.470;2022-10-16T10:04:50;18.80;99.90
19928;DHT22;10126;50.876;4.470;2022-10-16T10:06:53;18.80;99.90
19928;DHT22;10126;50.876;4.470;2022-10-16T10:11:02;19.00;99.90
19928;DHT22;10126;50.876;4.470;2022-10-16T10:13:20;19.00;99.90
19928;DHT22;10126;50.876;4.470;2022-10-16T10:15:22;18.90;99.90
19928;DHT22;10126;50.876;4.470;2022-10-16T10:17:26;19.10;99.90
19928;DHT22;10126;50.876;4.470;2022-10-16T10:19:27;19.10;99.90
19928;DHT22;10126;50.876;4.470;2022-10-16T10:21:28;19.20;99.90
19928;DHT22;10126;50.876;4.470;2022-10-16T10:23:29;19.40;99.90
19928;DHT22;10126;50.876;4.470;2022-10-16T10:25:57;19.70;99.90
19928;DHT22;10126;50.876;4.470;2022-10-16T10:30:44;19.50;99.90
19928;DHT22;10126;50.876;4.470;2022-10-16T10:47:45;20.00;99.90
19928;DHT22;10126;50.876;4.470;2022-10-16T10:59:59;20.00;99.90
19928;DHT22;10126;50.876;4.470;2022-10-16T11:05:14;20.00;99.90
19928;DHT22;10126;50.876;4.470;2022-10-16T11:07:05;19.90;99.90
19928;DHT22;10126;50.876;4.470;2022-10-16T11:09:13;19.90;99.90
19928;DHT22;10126;50.876;4.470;2022-10-16T11:11:45;20.00;99.90
19928;DHT22;10126;50.876;4.470;2022-10-16T11:16:03;20.30;99.90
19928;DHT22;10126;50.876;4.470;2022-10-16T11:20:37;20.40;99.90
19928;DHT22;10126;50.876;4.470;2022-10-16T11:22:48;20.10;99.90
19928;DHT22;10126;50.876;4.470;2022-10-16T11:24:55;19.90;99.90
19928;DHT22;10126;50.876;4.470;2022-10-16T11:27:04;20.00;99.90
19928;DHT22;10126;50.876;4.470;2022-10-16T11:29:15;19.80;99.90
19928;DHT22;10126;50.876;4.470;2022-10-16T11:31:53;19.80;99.90
19928;DHT22;10126;50.876;4.470;2022-10-16T11:36:12;20.00;99.90
19928;DHT22;10126;50.876;4.470;2022-10-16T11:38:29;20.10;99.90
19928;DHT22;10126;50.876;4.470;2022-10-16T11:40:33;20.40;99.90
19928;DHT22;10126;50.876;4.470;2022-10-16T11:42:41;20.60;99.90
19928;DHT22;10126;50.876;4.470;2022-10-16T11:45:04;20.60;99.90
19928;DHT22;10126;50.876;4.470;2022-10-16T11:47:33;20.40;99.90
19928;DHT22;10126;50.876;4.470;2022-10-16T11:49:36;20.30;99.90
19928;DHT22;10126;50.876;4.470;2022-10-16T11:51:48;20.30;99.90
19928;DHT22;10126;50.876;4.470;2022-10-16T11:55:57;20.50;99.90
19928;DHT22;10126;50.876;4.470;2022-10-16T11:58:24;20.70;99.90
19928;DHT22;10126;50.876;4.470;2022-10-16T12:00:41;20.60;99.90
19928;DHT22;10126;50.876;4.470;2022-10-16T12:03:08;20.70;99.90
19928;DHT22;10126;50.876;4.470;2022-10-16T12:05:35;20.40;99.90
19928;DHT22;10126;50.876;4.470;2022-10-16T12:07:50;20.50;99.90
19928;DHT22;10126;50.876;4.470;2022-10-16T12:09:53;20.80;99.90
19928;DHT22;10126;50.876;4.470;2022-10-16T12:11:57;20.70;99.90
19928;DHT22;10126;50.876;4.470;2022-10-16T12:18:21;21.40;99.90
19928;DHT22;10126;50.876;4.470;2022-10-16T12:20:27;21.50;99.90
19928;DHT22;10126;50.876;4.470;2022-10-16T12:22:29;21.60;99.90
19928;DHT22;10126;50.876;4.470;2022-10-16T12:26:39;21.70;99.90
19928;DHT22;10126;50.876;4.470;2022-10-16T12:28:42;21.50;99.90
19928;DHT22;10126;50.876;4.470;2022-10-16T12:30:43;21.50;99.90
19928;DHT22;10126;50.876;4.470;2022-10-16T12:32:57;21.50;99.90
19928;DHT22;10126;50.876;4.470;2022-10-16T12:35:00;21.40;99.90
19928;DHT22;10126;50.876;4.470;2022-10-16T12:37:31;21.40;99.90
19928;DHT22;10126;50.876;4.470;2022-10-16T12:39:33;21.50;99.90
19928;DHT22;10126;50.876;4.470;2022-10-16T12:41:35;21.50;99.90
19928;DHT22;10126;50.876;4.470;2022-10-16T12:43:42;21.40;99.90
19928;DHT22;10126;50.876;4.470;2022-10-16T12:45:43;21.20;99.90
19928;DHT22;10126;50.876;4.470;2022-10-16T12:47:50;21.20;99.90
19928;DHT22;10126;50.876;4.470;2022-10-16T12:49:53;21.10;99.90
19928;DHT22;10126;50.876;4.470;2022-10-16T12:51:55;21.00;99.90
19928;DHT22;10126;50.876;4.470;2022-10-16T12:54:11;21.10;99.90
19928;DHT22;10126;50.876;4.470;2022-10-16T12:56:27;21.00;99.90
19928;DHT22;10126;50.876;4.470;2022-10-16T13:00:50;21.30;99.90
19928;DHT22;10126;50.876;4.470;2022-10-16T13:25:56;22.10;99.90
19928;DHT22;10126;50.876;4.470;2022-10-16T13:28:06;22.10;99.90
19928;DHT22;10126;50.876;4.470;2022-10-16T13:30:16;22.00;99.90
19928;DHT22;10126;50.876;4.470;2022-10-16T13:32:19;21.80;99.90
19928;DHT22;10126;50.876;4.470;2022-10-16T13:34:22;21.90;99.90
19928;DHT22;10126;50.876;4.470;2022-10-16T13:36:28;22.10;99.90
19928;DHT22;10126;50.876;4.470;2022-10-16T13:38:34;22.20;99.90
19928;DHT22;10126;50.876;4.470;2022-10-16T13:40:35;22.10;99.90
19928;DHT22;10126;50.876;4.470;2022-10-16T13:42:36;22.20;99.90
19928;DHT22;10126;50.876;4.470;2022-10-16T13:44:42;22.50;99.90
19928;DHT22;10126;50.876;4.470;2022-10-16T13:46:43;22.50;99.90
19928;DHT22;10126;50.876;4.470;2022-10-16T13:48:45;22.40;99.90
19928;DHT22;10126;50.876;4.470;2022-10-16T13:51:18;22.00;99.90
19928;DHT22;10126;50.876;4.470;2022-10-16T13:53:18;21.90;99.90
19928;DHT22;10126;50.876;4.470;2022-10-16T13:55:19;22.00;99.90
19928;DHT22;10126;50.876;4.470;2022-10-16T13:57:23;22.00;99.90
19928;DHT22;10126;50.876;4.470;2022-10-16T14:01:28;21.80;99.90
19928;DHT22;10126;50.876;4.470;2022-10-16T14:03:30;21.60;99.90
19928;DHT22;10126;50.876;4.470;2022-10-16T14:05:31;21.60;99.90
19928;DHT22;10126;50.876;4.470;2022-10-16T14:07:33;21.70;99.90
19928;DHT22;10126;50.876;4.470;2022-10-16T14:09:34;21.70;99.90
19928;DHT22;10126;50.876;4.470;2022-10-16T14:11:53;21.70;99.90
19928;DHT22;10126;50.876;4.470;2022-10-16T14:13:55;21.70;99.90
19928;DHT22;10126;50.876;4.470;2022-10-16T14:16:05;21.70;99.90
19928;DHT22;10126;50.876;4.470;2022-10-16T14:18:06;21.70;99.90
19928;DHT22;10126;50.876;4.470;2022-10-16T14:20:14;21.80;99.90
19928;DHT22;10126;50.876;4.470;2022-10-16T14:22:40;21.80;99.90
19928;DHT22;10126;50.876;4.470;2022-10-16T14:24:41;21.60;99.90
19928;DHT22;10126;50.876;4.470;2022-10-16T14:26:43;21.50;99.90
19928;DHT22;10126;50.876;4.470;2022-10-16T14:28:46;21.50;99.90
19928;DHT22;10126;50.876;4.470;2022-10-16T14:33:31;21.50;99.90
19928;DHT22;10126;50.876;4.470;2022-10-16T14:35:37;21.70;99.90
19928;DHT22;10126;50.876;4.470;2022-10-16T14:37:39;21.70;99.90
19928;DHT22;10126;50.876;4.470;2022-10-16T14:39:39;21.90;99.90
19928;DHT22;10126;50.876;4.470;2022-10-16T14:41:44;21.80;99.90
19928;DHT22;10126;50.876;4.470;2022-10-16T14:43:50;21.80;99.90
19928;DHT22;10126;50.876;4.470;2022-10-16T14:45:54;21.70;99.90
19928;DHT22;10126;50.876;4.470;2022-10-16T14:48:01;21.90;99.90
19928;DHT22;10126;50.876;4.470;2022-10-16T14:50:04;21.70;99.90
19928;DHT22;10126;50.876;4.470;2022-10-16T14:52:10;21.70;99.90